Time;durP1;ratioP1;P1;durP2;ratioP2;P2;SDS_P1;SDS_P2;PMS_P1;PMS_P2;Temp;Humidity;BMP_temperature;BMP_pressure;BME280_temperature;BME280_humidity;BME280_pressure;Samples;Min_cycle;Max_cycle;Signal;HPM_P1;HPM_P2
2022/06/29 00:00:18;;;;;;;;;;;17.20;99.90;;;;;;5013124;28;19937;-79
2022/06/29 00:02:45;;;;;;;;;;;17.20;99.90;;;;;;5041471;28;19935;-83
2022/06/29 00:05:13;;;;;;;;;;;17.10;99.90;;;;;;5028600;28;20015;-77
2022/06/29 00:07:40;;;;;;;;;;;17.10;99.90;;;;;;5027066;28;19932;-77
2022/06/29 00:10:08;;;;;;;;;;;17.10;99.90;;;;;;5027087;28;19937;-77
2022/06/29 00:12:35;;;;;;;;;;;17.00;99.90;;;;;;5012645;28;19942;-78
2022/06/29 00:15:03;;;;;;;;;;;17.00;99.90;;;;;;5022604;28;20389;-76
2022/06/29 00:17:31;;;;;;;;;;;16.90;99.90;;;;;;5023834;28;19990;-78
2022/06/29 00:19:58;;;;;;;;;;;16.90;99.90;;;;;;5042877;28;19925;-79
2022/06/29 00:22:25;;;;;;;;;;;16.90;99.90;;;;;;5060075;28;19940;-81
2022/06/29 00:24:52;;;;;;;;;;;16.80;99.90;;;;;;5059839;28;20416;-76
2022/06/29 00:27:20;;;;;;;;;;;16.80;99.90;;;;;;5027531;28;19975;-76
2022/06/29 00:29:47;;;;;;;;;;;16.80;99.90;;;;;;5025684;28;20043;-76
2022/06/29 00:32:14;;;;;;;;;;;16.80;99.90;;;;;;5028404;28;19929;-77
2022/06/29 00:34:41;;;;;;;;;;;16.80;99.90;;;;;;5031075;28;19926;-77
2022/06/29 00:37:07;;;;;;;;;;;16.80;99.90;;;;;;5043611;28;19936;-78
2022/06/29 00:39:34;;;;;;;;;;;16.80;99.90;;;;;;5027959;28;19936;-76
2022/06/29 00:42:01;;;;;;;;;;;16.70;99.90;;;;;;5029281;28;19936;-78
2022/06/29 00:44:29;;;;;;;;;;;16.70;99.90;;;;;;5027824;28;20293;-77
2022/06/29 00:46:57;;;;;;;;;;;16.60;99.90;;;;;;5016763;28;19980;-77
2022/06/29 00:49:24;;;;;;;;;;;16.60;99.90;;;;;;5022601;28;19948;-79
2022/06/29 00:51:58;;;;;;;;;;;16.60;99.90;;;;;;5028124;28;19931;-76
2022/06/29 00:54:25;;;;;;;;;;;16.60;99.90;;;;;;5057560;28;19933;-78
2022/06/29 00:56:52;;;;;;;;;;;16.50;99.90;;;;;;5061525;28;19940;-77
2022/06/29 00:59:20;;;;;;;;;;;16.50;99.90;;;;;;5045334;28;19935;-77
2022/06/29 01:01:48;;;;;;;;;;;16.50;99.90;;;;;;5029164;28;19936;-77
2022/06/29 01:04:15;;;;;;;;;;;16.50;99.90;;;;;;5028148;28;19937;-82
2022/06/29 01:06:42;;;;;;;;;;;16.50;99.90;;;;;;5041443;28;20354;-77
2022/06/29 01:09:10;;;;;;;;;;;16.40;99.90;;;;;;5022436;28;20032;-78
2022/06/29 01:11:37;;;;;;;;;;;16.40;99.90;;;;;;5030519;28;19929;-76
2022/06/29 01:14:04;;;;;;;;;;;16.40;99.90;;;;;;5054545;28;19933;-79
2022/06/29 01:16:31;;;;;;;;;;;16.40;99.90;;;;;;5048029;28;19928;-76
2022/06/29 01:18:59;;;;;;;;;;;18.30;99.90;;;;;;5048643;28;19925;-76
2022/06/29 01:21:27;;;;;;;;;;;16.40;99.90;;;;;;5006814;28;19929;-75
2022/06/29 01:23:55;;;;;;;;;;;16.40;99.90;;;;;;5033214;28;20275;-75
2022/06/29 01:26:22;;;;;;;;;;;16.10;99.90;;;;;;5043364;28;19949;-78
2022/06/29 01:28:48;;;;;;;;;;;16.30;99.90;;;;;;5029476;28;19952;-77
2022/06/29 01:31:16;;;;;;;;;;;16.30;99.90;;;;;;5030010;28;19929;-75
2022/06/29 01:33:43;;;;;;;;;;;16.30;99.90;;;;;;5032786;28;19933;-80
2022/06/29 01:36:09;;;;;;;;;;;16.20;99.90;;;;;;5044415;28;19933;-75
2022/06/29 01:38:36;;;;;;;;;;;16.20;99.90;;;;;;5046226;28;19931;-77
2022/06/29 01:41:05;;;;;;;;;;;16.20;99.90;;;;;;5031604;28;20078;-75
2022/06/29 01:43:32;;;;;;;;;;;16.10;99.90;;;;;;5033415;28;19933;-75
2022/06/29 01:45:59;;;;;;;;;;;16.10;99.90;;;;;;5055698;28;19945;-76
2022/06/29 01:48:25;;;;;;;;;;;16.10;99.90;;;;;;5032980;28;19937;-76
2022/06/29 01:50:52;;;;;;;;;;;16.00;99.90;;;;;;5033384;28;19932;-75
2022/06/29 01:53:19;;;;;;;;;;;16.00;99.90;;;;;;5035714;28;19929;-79
2022/06/29 01:55:46;;;;;;;;;;;16.00;99.90;;;;;;5042665;28;19928;-77
2022/06/29 01:58:14;;;;;;;;;;;15.90;99.90;;;;;;5031536;28;19950;-77
2022/06/29 02:00:41;;;;;;;;;;;15.90;99.90;;;;;;5032443;28;20001;-78
2022/06/29 02:03:08;;;;;;;;;;;15.90;99.90;;;;;;5030516;28;19929;-76
2022/06/29 02:05:35;;;;;;;;;;;15.80;99.90;;;;;;5040557;28;19946;-77
2022/06/29 02:08:01;;;;;;;;;;;15.00;99.90;;;;;;5082295;28;19936;-76
2022/06/29 02:10:28;;;;;;;;;;;15.80;99.90;;;;;;5067026;28;19925;-82
2022/06/29 02:12:55;;;;;;;;;;;15.70;99.90;;;;;;5086705;28;19940;-77
2022/06/29 02:15:24;;;;;;;;;;;15.70;99.90;;;;;;5042978;28;19932;-80
2022/06/29 02:17:51;;;;;;;;;;;15.70;99.90;;;;;;5032667;28;19941;-77
2022/06/29 02:20:17;;;;;;;;;;;15.60;99.90;;;;;;5031464;28;19929;-76
2022/06/29 02:22:44;;;;;;;;;;;15.80;99.90;;;;;;5040688;28;19988;-79
2022/06/29 02:25:11;;;;;;;;;;;15.60;99.90;;;;;;5031363;28;19936;-76
2022/06/29 02:27:39;;;;;;;;;;;16.10;99.90;;;;;;5031224;28;19940;-77
2022/06/29 02:30:06;;;;;;;;;;;15.50;99.90;;;;;;5025445;28;19930;-79
2022/06/29 02:35:18;;;;;;;;;;;15.40;99.90;;;;;;5043028;28;19941;-76
2022/06/29 02:37:45;;;;;;;;;;;15.40;99.90;;;;;;5028805;28;20345;-78
2022/06/29 02:40:14;;;;;;;;;;;15.40;99.90;;;;;;5067369;28;19936;-79
2022/06/29 02:42:40;;;;;;;;;;;15.30;99.90;;;;;;5044784;28;19936;-80
2022/06/29 02:45:12;;;;;;;;;;;15.30;99.90;;;;;;5045342;28;19913;-83
2022/06/29 02:47:40;;;;;;;;;;;15.20;99.90;;;;;;5048535;28;19913;-82
2022/06/29 02:50:09;;;;;;;;;;;15.20;99.90;;;;;;5068031;28;19956;-83
2022/06/29 02:52:36;;;;;;;;;;;15.10;99.90;;;;;;5056088;28;20436;-81
2022/06/29 02:55:02;;;;;;;;;;;15.00;99.90;;;;;;5034435;28;19925;-82
2022/06/29 02:57:29;;;;;;;;;;;15.00;99.90;;;;;;5041080;28;19952;-76
2022/06/29 02:59:56;;;;;;;;;;;15.00;99.90;;;;;;5045718;28;20012;-79
2022/06/29 03:02:23;;;;;;;;;;;15.00;99.90;;;;;;5044147;28;19933;-76
2022/06/29 03:04:51;;;;;;;;;;;15.00;99.90;;;;;;5031006;28;19925;-77
2022/06/29 03:07:17;;;;;;;;;;;14.90;99.90;;;;;;5028036;28;19925;-77
2022/06/29 03:09:44;;;;;;;;;;;14.90;99.90;;;;;;5029165;28;19929;-77
2022/06/29 03:12:11;;;;;;;;;;;14.90;99.90;;;;;;5036119;28;19932;-76
2022/06/29 03:14:38;;;;;;;;;;;16.10;99.90;;;;;;5036633;28;20290;-76
2022/06/29 03:17:04;;;;;;;;;;;14.80;99.90;;;;;;5038136;28;19935;-80
2022/06/29 03:19:31;;;;;;;;;;;14.80;99.90;;;;;;5027956;28;20274;-80
2022/06/29 03:21:59;;;;;;;;;;;14.80;99.90;;;;;;5029671;28;19937;-81
2022/06/29 03:24:26;;;;;;;;;;;14.90;99.90;;;;;;5029447;28;19929;-80
2022/06/29 03:26:53;;;;;;;;;;;14.80;99.90;;;;;;5028882;28;19952;-82
2022/06/29 03:29:19;;;;;;;;;;;14.80;99.90;;;;;;5029863;28;20400;-81
2022/06/29 03:31:46;;;;;;;;;;;14.80;99.90;;;;;;5036499;28;19936;-80
2022/06/29 03:34:13;;;;;;;;;;;14.80;99.90;;;;;;5019939;28;19929;-81
2022/06/29 03:36:40;;;;;;;;;;;14.70;99.90;;;;;;5044349;28;20012;-81
2022/06/29 03:39:08;;;;;;;;;;;15.30;99.90;;;;;;5035416;28;19928;-80
2022/06/29 03:41:35;;;;;;;;;;;14.70;99.90;;;;;;5028741;28;19929;-82
2022/06/29 03:44:01;;;;;;;;;;;14.60;99.90;;;;;;5032919;28;19935;-80
2022/06/29 03:46:28;;;;;;;;;;;14.60;99.90;;;;;;5031301;28;19944;-80
2022/06/29 03:48:55;;;;;;;;;;;14.70;99.90;;;;;;5028201;28;19928;-82
2022/06/29 03:51:21;;;;;;;;;;;14.70;99.90;;;;;;5045516;28;19979;-83
2022/06/29 03:53:48;;;;;;;;;;;14.70;99.90;;;;;;5029425;28;20289;-82
2022/06/29 03:56:16;;;;;;;;;;;14.80;99.90;;;;;;5030079;28;20393;-83
2022/06/29 03:58:43;;;;;;;;;;;14.90;99.90;;;;;;5045739;28;20312;-83
2022/06/29 04:01:10;;;;;;;;;;;14.90;99.90;;;;;;5047879;28;19940;-84
2022/06/29 04:03:36;;;;;;;;;;;15.00;99.90;;;;;;5031017;28;20308;-81
2022/06/29 04:06:03;;;;;;;;;;;15.20;99.90;;;;;;5037142;28;19929;-81
2022/06/29 04:08:30;;;;;;;;;;;15.30;99.90;;;;;;5026916;28;19932;-80
2022/06/29 04:10:57;;;;;;;;;;;15.30;99.90;;;;;;5029850;28;19933;-79
2022/06/29 04:13:25;;;;;;;;;;;15.40;99.90;;;;;;5028797;28;19929;-80
2022/06/29 04:15:52;;;;;;;;;;;15.50;99.90;;;;;;5045041;28;19925;-79
2022/06/29 04:18:18;;;;;;;;;;;15.50;99.90;;;;;;5061189;28;19933;-81
2022/06/29 04:23:41;;;;;;;;;;;17.10;99.90;;;;;;5003212;28;20488;-82
2022/06/29 04:26:07;;;;;;;;;;;15.50;99.90;;;;;;5047699;28;19956;-83
2022/06/29 04:28:36;;;;;;;;;;;15.50;99.90;;;;;;5031945;28;19925;-83
2022/06/29 04:31:03;;;;;;;;;;;15.50;99.90;;;;;;5030328;28;20168;-82
2022/06/29 04:33:30;;;;;;;;;;;15.60;99.90;;;;;;5037681;28;19960;-82
2022/06/29 04:35:59;;;;;;;;;;;15.60;99.90;;;;;;5046188;28;19924;-83
2022/06/29 04:38:31;;;;;;;;;;;15.70;99.90;;;;;;4924936;28;19929;-83
2022/06/29 04:41:00;;;;;;;;;;;16.60;99.90;;;;;;4909110;28;20066;-84
2022/06/29 04:43:29;;;;;;;;;;;15.70;99.90;;;;;;4895910;28;19967;-84
2022/06/29 04:48:42;;;;;;;;;;;15.90;99.90;;;;;;4900076;28;20488;-84
2022/06/29 04:51:08;;;;;;;;;;;16.10;99.90;;;;;;4946458;28;19933;-83
2022/06/29 04:53:35;;;;;;;;;;;16.00;99.90;;;;;;5045281;28;19991;-82
2022/06/29 04:56:02;;;;;;;;;;;16.10;99.90;;;;;;5029230;28;20400;-83
2022/06/29 04:58:29;;;;;;;;;;;16.20;99.90;;;;;;5062296;28;20440;-84
2022/06/29 05:01:04;;;;;;;;;;;16.40;99.90;;;;;;5037095;28;20043;-83
2022/06/29 05:03:31;;;;;;;;;;;16.40;99.90;;;;;;5031131;28;20066;-81
2022/06/29 05:05:58;;;;;;;;;;;16.20;99.90;;;;;;5038860;28;19964;-82
2022/06/29 05:08:26;;;;;;;;;;;16.80;99.90;;;;;;5043946;28;19929;-80
2022/06/29 05:10:54;;;;;;;;;;;17.00;99.90;;;;;;5042336;28;20015;-83
2022/06/29 05:13:21;;;;;;;;;;;17.20;99.90;;;;;;5044604;28;20296;-80
2022/06/29 05:15:48;;;;;;;;;;;17.40;99.90;;;;;;5047344;28;19929;-79
2022/06/29 05:18:16;;;;;;;;;;;17.60;99.90;;;;;;5045345;28;20326;-80
2022/06/29 05:20:43;;;;;;;;;;;17.80;99.90;;;;;;5038294;28;19933;-80
2022/06/29 05:23:10;;;;;;;;;;;18.30;99.90;;;;;;5052160;28;20325;-78
2022/06/29 05:25:37;;;;;;;;;;;18.30;99.90;;;;;;5045681;28;19936;-79
2022/06/29 05:28:04;;;;;;;;;;;18.50;99.90;;;;;;5028924;28;19934;-78
2022/06/29 05:30:31;;;;;;;;;;;18.70;99.90;;;;;;5042274;28;19952;-82
2022/06/29 05:33:02;;;;;;;;;;;18.90;99.90;;;;;;5028836;28;19928;-80
2022/06/29 05:35:33;;;;;;;;;;;19.00;99.90;;;;;;5031381;28;19929;-82
2022/06/29 05:38:00;;;;;;;;;;;19.30;99.90;;;;;;5025342;28;19933;-80
2022/06/29 05:40:27;;;;;;;;;;;19.40;99.90;;;;;;5024909;28;20545;-80
2022/06/29 05:42:53;;;;;;;;;;;19.60;99.90;;;;;;5025454;28;19926;-80
2022/06/29 05:45:20;;;;;;;;;;;19.90;99.90;;;;;;5029420;28;19945;-78
2022/06/29 05:47:47;;;;;;;;;;;20.20;99.90;;;;;;5026464;28;20400;-78
2022/06/29 05:50:13;;;;;;;;;;;20.30;99.90;;;;;;5026297;28;19925;-79
2022/06/29 05:52:42;;;;;;;;;;;20.40;99.90;;;;;;5032887;28;19933;-79
2022/06/29 05:55:09;;;;;;;;;;;20.60;99.90;;;;;;5030688;28;19933;-78
2022/06/29 05:57:35;;;;;;;;;;;20.70;99.90;;;;;;5030069;28;19929;-79
2022/06/29 06:00:03;;;;;;;;;;;20.60;99.90;;;;;;5045965;28;19925;-79
2022/06/29 06:02:38;;;;;;;;;;;20.60;99.90;;;;;;5029626;28;20034;-79
2022/06/29 06:05:05;;;;;;;;;;;21.30;99.90;;;;;;5034919;28;19925;-80
2022/06/29 06:07:32;;;;;;;;;;;20.40;99.90;;;;;;5036367;28;19925;-79
2022/06/29 06:10:00;;;;;;;;;;;20.60;99.90;;;;;;5047110;28;19929;-81
2022/06/29 06:12:28;;;;;;;;;;;21.30;99.90;;;;;;5044113;28;19929;-81
2022/06/29 06:14:57;;;;;;;;;;;22.20;99.90;;;;;;5046298;28;20042;-80
2022/06/29 06:17:26;;;;;;;;;;;22.70;99.90;;;;;;5029471;28;19929;-79
2022/06/29 06:19:53;;;;;;;;;;;22.80;99.90;;;;;;5036533;28;19964;-80
2022/06/29 06:22:19;;;;;;;;;;;22.80;99.90;;;;;;5041452;28;19928;-80
2022/06/29 06:24:46;;;;;;;;;;;22.70;99.90;;;;;;5055310;28;19964;-79
2022/06/29 06:27:14;;;;;;;;;;;22.70;99.90;;;;;;5053016;28;19925;-79
2022/06/29 06:29:41;;;;;;;;;;;22.60;99.90;;;;;;5050438;28;19929;-81
2022/06/29 06:32:08;;;;;;;;;;;22.60;99.90;;;;;;5031068;28;20008;-80
2022/06/29 06:34:35;;;;;;;;;;;22.70;99.90;;;;;;5037771;28;19954;-78
2022/06/29 06:37:02;;;;;;;;;;;22.90;99.90;;;;;;5046616;28;20294;-81
2022/06/29 06:39:28;;;;;;;;;;;23.00;99.90;;;;;;5022885;28;20019;-81
2022/06/29 06:41:54;;;;;;;;;;;23.20;99.90;;;;;;5031252;28;19953;-80
2022/06/29 06:44:22;;;;;;;;;;;23.00;99.90;;;;;;5044620;28;19928;-79
2022/06/29 06:46:49;;;;;;;;;;;23.90;99.90;;;;;;5030639;28;19933;-80
2022/06/29 06:49:16;;;;;;;;;;;24.00;99.90;;;;;;5046487;28;20008;-82
2022/06/29 06:51:43;;;;;;;;;;;24.20;99.90;;;;;;5049920;28;19968;-80
2022/06/29 06:54:09;;;;;;;;;;;24.30;99.90;;;;;;5031878;28;19925;-77
2022/06/29 06:56:36;;;;;;;;;;;24.90;99.90;;;;;;5048581;28;19940;-79
2022/06/29 06:59:03;;;;;;;;;;;25.00;99.90;;;;;;5032938;28;19932;-78
2022/06/29 07:01:31;;;;;;;;;;;25.30;99.90;;;;;;5023237;28;19929;-78
2022/06/29 07:03:58;;;;;;;;;;;25.50;99.90;;;;;;5029652;28;19937;-79
2022/06/29 07:06:25;;;;;;;;;;;25.30;99.90;;;;;;5054529;28;19940;-80
2022/06/29 07:08:54;;;;;;;;;;;25.30;99.90;;;;;;5027157;28;19941;-79
2022/06/29 07:11:20;;;;;;;;;;;25.50;99.90;;;;;;5025987;28;19941;-80
2022/06/29 07:13:47;;;;;;;;;;;25.80;99.90;;;;;;5044103;28;19936;-79
2022/06/29 07:16:31;;;;;;;;;;;26.10;99.90;;;;;;4947623;28;20424;-83
2022/06/29 07:19:01;;;;;;;;;;;26.20;99.90;;;;;;4881613;28;20105;-82
2022/06/29 07:21:29;;;;;;;;;;;26.30;99.90;;;;;;4945771;28;19929;-78
2022/06/29 07:23:58;;;;;;;;;;;26.30;99.90;;;;;;5043608;28;19929;-79
2022/06/29 07:26:26;;;;;;;;;;;26.20;99.90;;;;;;5040463;28;19929;-80
2022/06/29 07:28:53;;;;;;;;;;;26.10;99.90;;;;;;5044513;28;20373;-79
2022/06/29 07:31:20;;;;;;;;;;;26.00;99.90;;;;;;5032898;28;20435;-78
2022/06/29 07:33:48;;;;;;;;;;;25.90;99.90;;;;;;5030360;28;19933;-80
2022/06/29 07:36:16;;;;;;;;;;;25.70;99.90;;;;;;5052275;28;19929;-77
2022/06/29 07:38:43;;;;;;;;;;;25.70;99.90;;;;;;5027074;28;19956;-78
2022/06/29 07:41:12;;;;;;;;;;;25.60;99.90;;;;;;5021314;28;19936;-78
2022/06/29 07:43:39;;;;;;;;;;;25.40;99.90;;;;;;5027890;28;19929;-79
2022/06/29 07:46:08;;;;;;;;;;;25.30;99.90;;;;;;5044263;28;19929;-78
2022/06/29 07:48:36;;;;;;;;;;;25.20;99.90;;;;;;5021803;28;19940;-79
2022/06/29 07:51:03;;;;;;;;;;;25.10;99.90;;;;;;5018829;28;19936;-79
2022/06/29 07:53:32;;;;;;;;;;;24.90;99.90;;;;;;5028614;28;19925;-79
2022/06/29 07:55:58;;;;;;;;;;;24.70;99.90;;;;;;5045088;28;19955;-77
2022/06/29 07:58:25;;;;;;;;;;;24.60;99.90;;;;;;5030365;28;19928;-79
2022/06/29 08:00:52;;;;;;;;;;;24.40;99.90;;;;;;5057432;28;19936;-80
2022/06/29 08:03:19;;;;;;;;;;;24.20;99.90;;;;;;5065545;28;19968;-80
2022/06/29 08:05:46;;;;;;;;;;;24.10;99.90;;;;;;5059433;28;20577;-81
2022/06/29 08:08:15;;;;;;;;;;;24.00;99.90;;;;;;5043309;28;20539;-80
2022/06/29 08:10:44;;;;;;;;;;;24.00;99.90;;;;;;5042138;28;19975;-80
2022/06/29 08:13:10;;;;;;;;;;;24.10;99.90;;;;;;5044155;28;20141;-80
2022/06/29 08:15:37;;;;;;;;;;;24.10;99.90;;;;;;5021943;28;20008;-77
2022/06/29 08:18:04;;;;;;;;;;;24.30;99.90;;;;;;5024320;28;19945;-77
2022/06/29 08:20:31;;;;;;;;;;;24.30;99.90;;;;;;5041290;28;20020;-78
2022/06/29 08:22:58;;;;;;;;;;;24.30;99.90;;;;;;5023292;28;20439;-77
2022/06/29 08:25:25;;;;;;;;;;;24.20;99.90;;;;;;5035488;28;19925;-80
2022/06/29 08:27:53;;;;;;;;;;;24.10;99.90;;;;;;5042382;28;19989;-80
2022/06/29 08:30:21;;;;;;;;;;;24.10;99.90;;;;;;5042661;28;20000;-80
2022/06/29 08:32:47;;;;;;;;;;;24.10;99.90;;;;;;5035542;28;19929;-79
2022/06/29 08:35:15;;;;;;;;;;;24.20;99.90;;;;;;5045581;28;20377;-78
2022/06/29 08:37:42;;;;;;;;;;;24.20;99.90;;;;;;5039197;28;19929;-80
2022/06/29 08:40:09;;;;;;;;;;;24.20;99.90;;;;;;5034569;28;19940;-79
2022/06/29 08:42:37;;;;;;;;;;;24.20;99.90;;;;;;5069185;28;19936;-78
2022/06/29 08:45:06;;;;;;;;;;;24.20;99.90;;;;;;5038749;28;19948;-78
2022/06/29 08:47:33;;;;;;;;;;;24.20;99.90;;;;;;5029860;28;19925;-78
2022/06/29 08:50:03;;;;;;;;;;;24.20;99.90;;;;;;5052344;28;20308;-79
2022/06/29 08:52:30;;;;;;;;;;;24.20;99.90;;;;;;5056241;28;19929;-76
2022/06/29 08:54:57;;;;;;;;;;;24.20;99.90;;;;;;5037638;28;19930;-78
2022/06/29 08:57:24;;;;;;;;;;;24.30;99.90;;;;;;5029555;28;19948;-79
2022/06/29 08:59:52;;;;;;;;;;;24.30;99.90;;;;;;5052329;28;19932;-77
2022/06/29 09:02:21;;;;;;;;;;;24.20;99.90;;;;;;5052210;28;20405;-77
2022/06/29 09:04:50;;;;;;;;;;;24.10;99.90;;;;;;5049524;28;19940;-78
2022/06/29 09:07:17;;;;;;;;;;;24.10;99.90;;;;;;5033782;28;19933;-76
2022/06/29 09:10:00;;;;;;;;;;;24.10;99.90;;;;;;5037195;28;19929;-80
2022/06/29 09:12:27;;;;;;;;;;;24.20;99.90;;;;;;5046573;28;19925;-77
2022/06/29 09:14:54;;;;;;;;;;;24.20;99.90;;;;;;5041909;28;19944;-80
2022/06/29 09:17:23;;;;;;;;;;;24.30;99.90;;;;;;5031659;28;19930;-79
2022/06/29 09:19:49;;;;;;;;;;;24.20;99.90;;;;;;5055656;28;19929;-77
2022/06/29 09:22:16;;;;;;;;;;;24.30;99.90;;;;;;5045666;28;20008;-77
2022/06/29 09:24:43;;;;;;;;;;;24.30;99.90;;;;;;5041584;28;19937;-81
2022/06/29 09:27:12;;;;;;;;;;;24.30;99.90;;;;;;5056715;28;19949;-76
2022/06/29 09:29:41;;;;;;;;;;;24.20;99.90;;;;;;5049939;28;19929;-76
2022/06/29 09:32:08;;;;;;;;;;;24.20;99.90;;;;;;5079829;28;19929;-77
2022/06/29 09:34:37;;;;;;;;;;;24.20;99.90;;;;;;5052530;28;19919;-76
2022/06/29 09:37:05;;;;;;;;;;;24.30;99.90;;;;;;5047174;28;19925;-76
2022/06/29 09:39:33;;;;;;;;;;;24.40;99.90;;;;;;5065305;28;19941;-77
2022/06/29 09:42:00;;;;;;;;;;;24.50;99.90;;;;;;5044152;28;19933;-77
2022/06/29 09:44:26;;;;;;;;;;;24.60;99.90;;;;;;5062050;28;19988;-76
2022/06/29 09:46:55;;;;;;;;;;;25.00;99.90;;;;;;5052386;28;19979;-75
2022/06/29 09:49:24;;;;;;;;;;;25.10;99.90;;;;;;5067632;28;19925;-77
2022/06/29 09:51:54;;;;;;;;;;;25.40;99.90;;;;;;5066172;28;20003;-77
2022/06/29 09:54:21;;;;;;;;;;;25.60;99.90;;;;;;5054916;28;19996;-76
2022/06/29 09:56:48;;;;;;;;;;;25.90;99.90;;;;;;5052851;28;19935;-77
2022/06/29 09:59:21;;;;;;;;;;;26.20;99.90;;;;;;5067933;28;19948;-76
2022/06/29 10:04:33;;;;;;;;;;;26.80;99.90;;;;;;5050562;28;20364;-76
2022/06/29 10:07:02;;;;;;;;;;;27.10;99.90;;;;;;5054357;28;20284;-76
2022/06/29 10:09:28;;;;;;;;;;;27.20;99.90;;;;;;5052274;28;19920;-77
2022/06/29 10:15:06;;;;;;;;;;;27.50;99.90;;;;;;5048198;28;19999;-77
2022/06/29 10:17:37;;;;;;;;;;;27.70;99.90;;;;;;5056928;28;19939;-76
2022/06/29 10:20:10;;;;;;;;;;;27.80;99.90;;;;;;5041506;28;19940;-78
2022/06/29 10:22:39;;;;;;;;;;;28.30;99.90;;;;;;5040646;28;19929;-77
2022/06/29 10:25:09;;;;;;;;;;;28.30;99.90;;;;;;5052408;28;19925;-77
2022/06/29 10:27:35;;;;;;;;;;;28.70;99.90;;;;;;5050155;28;19925;-76
2022/06/29 10:30:21;;;;;;;;;;;28.70;99.90;;;;;;5047050;28;19941;-79
2022/06/29 10:32:48;;;;;;;;;;;28.70;99.90;;;;;;5051241;28;19924;-77
2022/06/29 10:35:15;;;;;;;;;;;28.50;99.90;;;;;;5068263;28;19940;-76
2022/06/29 10:37:50;;;;;;;;;;;28.40;99.90;;;;;;5050159;28;19929;-76
2022/06/29 10:40:18;;;;;;;;;;;28.30;99.70;;;;;;5045271;28;19941;-76
2022/06/29 10:45:36;;;;;;;;;;;28.10;99.90;;;;;;5050896;28;19921;-76
2022/06/29 10:48:21;;;;;;;;;;;28.20;99.90;;;;;;5139825;22;19940;-74
2022/06/29 10:50:48;;;;;;;;;;;28.30;99.90;;;;;;5052616;28;19931;-75
2022/06/29 10:53:18;;;;;;;;;;;28.50;98.50;;;;;;5051845;28;20020;-74
2022/06/29 10:55:46;;;;;;;;;;;28.70;97.80;;;;;;5050164;28;19925;-74
2022/06/29 10:58:14;;;;;;;;;;;29.20;98.30;;;;;;5050013;28;19940;-75
2022/06/29 11:00:42;;;;;;;;;;;29.30;96.90;;;;;;5050763;28;19933;-74
2022/06/29 11:03:10;;;;;;;;;;;29.50;96.60;;;;;;5050247;28;20032;-75
2022/06/29 11:05:38;;;;;;;;;;;29.70;95.80;;;;;;5064732;28;20276;-75
2022/06/29 11:13:38;;;;;;;;;;;30.00;94.80;;;;;;5050379;28;19970;-75
2022/06/29 11:16:07;;;;;;;;;;;29.90;94.60;;;;;;5049819;28;20023;-76
2022/06/29 11:18:34;;;;;;;;;;;30.00;94.80;;;;;;5045185;28;19929;-75
2022/06/29 11:21:03;;;;;;;;;;;30.10;94.60;;;;;;5049156;28;19982;-75
2022/06/29 11:23:31;;;;;;;;;;;30.20;94.80;;;;;;5043947;28;19932;-76
2022/06/29 11:26:00;;;;;;;;;;;30.40;94.20;;;;;;5057906;28;19929;-76
2022/06/29 11:28:27;;;;;;;;;;;30.50;93.60;;;;;;5262339;22;19925;-79
2022/06/29 11:30:58;;;;;;;;;;;30.50;93.10;;;;;;5069988;28;20539;-80
2022/06/29 11:33:27;;;;;;;;;;;30.60;92.90;;;;;;5089751;28;19964;-78
2022/06/29 11:35:54;;;;;;;;;;;30.70;92.60;;;;;;5087395;28;19924;-78
2022/06/29 11:38:21;;;;;;;;;;;30.80;92.70;;;;;;5070362;28;19999;-77
2022/06/29 11:40:50;;;;;;;;;;;30.90;92.60;;;;;;5081387;28;19940;-78
2022/06/29 11:43:19;;;;;;;;;;;31.10;92.00;;;;;;5067576;28;20537;-78
2022/06/29 11:45:48;;;;;;;;;;;31.30;92.00;;;;;;5078004;28;19928;-78
2022/06/29 11:48:16;;;;;;;;;;;31.40;91.30;;;;;;5071021;28;19938;-81
2022/06/29 11:50:44;;;;;;;;;;;31.30;90.90;;;;;;5064213;28;19932;-80
2022/06/29 11:53:11;;;;;;;;;;;31.20;90.10;;;;;;5077621;28;19992;-80
2022/06/29 11:55:42;;;;;;;;;;;31.10;90.20;;;;;;5082976;28;19912;-79
2022/06/29 11:58:12;;;;;;;;;;;31.00;90.40;;;;;;5109202;23;19928;-76
2022/06/29 12:00:41;;;;;;;;;;;31.10;90.50;;;;;;5089945;28;19928;-76
2022/06/29 12:03:08;;;;;;;;;;;31.20;90.30;;;;;;5103657;28;19924;-76
2022/06/29 12:05:36;;;;;;;;;;;31.00;89.50;;;;;;5105361;28;19928;-76
2022/06/29 12:08:03;;;;;;;;;;;30.60;89.90;;;;;;5101330;28;19931;-72
2022/06/29 12:10:30;;;;;;;;;;;30.30;90.20;;;;;;5108254;28;19928;-73
2022/06/29 12:12:56;;;;;;;;;;;30.30;90.40;;;;;;5110197;28;19924;-74
2022/06/29 12:15:23;;;;;;;;;;;30.40;90.10;;;;;;5107533;28;19935;-74
2022/06/29 12:17:52;;;;;;;;;;;30.40;88.60;;;;;;5108721;28;19927;-73
2022/06/29 12:20:20;;;;;;;;;;;30.20;88.50;;;;;;5108511;28;19928;-74
2022/06/29 12:22:47;;;;;;;;;;;30.50;89.00;;;;;;5108226;28;19924;-75
2022/06/29 12:25:14;;;;;;;;;;;30.40;88.00;;;;;;5108080;28;20027;-74
2022/06/29 12:27:41;;;;;;;;;;;30.40;89.60;;;;;;5108657;28;20508;-75
2022/06/29 12:30:09;;;;;;;;;;;30.30;88.60;;;;;;5107375;28;19977;-72
2022/06/29 12:32:36;;;;;;;;;;;30.10;88.70;;;;;;5107662;28;19936;-72
2022/06/29 12:35:05;;;;;;;;;;;30.10;88.60;;;;;;5109494;28;19932;-72
2022/06/29 12:37:32;;;;;;;;;;;30.10;87.80;;;;;;5107893;28;20039;-72
2022/06/29 12:39:59;;;;;;;;;;;30.20;85.90;;;;;;5109929;28;19935;-73
2022/06/29 12:42:26;;;;;;;;;;;30.20;84.00;;;;;;5107817;28;19927;-74
2022/06/29 12:44:53;;;;;;;;;;;30.30;83.00;;;;;;5109019;28;20010;-75
2022/06/29 12:47:20;;;;;;;;;;;30.40;81.40;;;;;;5108160;28;19980;-73
2022/06/29 12:49:48;;;;;;;;;;;30.40;81.60;;;;;;5100160;28;19985;-75
2022/06/29 12:52:16;;;;;;;;;;;30.50;82.20;;;;;;5091890;28;20027;-74
2022/06/29 12:54:43;;;;;;;;;;;30.60;82.50;;;;;;5091649;28;19935;-80
2022/06/29 12:57:10;;;;;;;;;;;30.90;83.30;;;;;;5091139;28;19928;-78
2022/06/29 12:59:37;;;;;;;;;;;31.20;83.00;;;;;;5109947;28;19939;-77
2022/06/29 13:02:08;;;;;;;;;;;31.40;80.60;;;;;;5111395;28;19927;-77
2022/06/29 13:04:40;;;;;;;;;;;31.30;80.20;;;;;;5111220;28;19934;-77
2022/06/29 13:07:11;;;;;;;;;;;30.90;80.10;;;;;;5107118;22;19923;-81
2022/06/29 13:09:41;;;;;;;;;;;30.90;79.90;;;;;;5062441;28;20793;-79
2022/06/29 13:12:08;;;;;;;;;;;30.80;80.90;;;;;;5057114;28;20106;-82
2022/06/29 13:14:35;;;;;;;;;;;30.60;81.20;;;;;;5051830;28;20304;-82
2022/06/29 13:17:02;;;;;;;;;;;30.00;81.60;;;;;;5070309;28;20385;-82
2022/06/29 13:19:28;;;;;;;;;;;30.00;82.20;;;;;;5069326;28;20354;-83
2022/06/29 13:21:55;;;;;;;;;;;30.00;83.60;;;;;;5051868;28;20027;-81
2022/06/29 13:24:22;;;;;;;;;;;30.00;83.30;;;;;;5051419;28;20417;-80
2022/06/29 13:26:50;;;;;;;;;;;30.40;84.10;;;;;;5054273;28;19928;-81
2022/06/29 13:29:17;;;;;;;;;;;30.40;84.40;;;;;;5054026;28;20015;-81
2022/06/29 13:31:43;;;;;;;;;;;30.60;83.90;;;;;;5074135;28;19925;-81
2022/06/29 13:34:10;;;;;;;;;;;30.80;82.60;;;;;;5086413;28;19936;-79
2022/06/29 13:36:37;;;;;;;;;;;30.70;81.50;;;;;;5059688;28;19933;-82
2022/06/29 13:39:03;;;;;;;;;;;30.80;81.80;;;;;;5056438;28;19925;-83
2022/06/29 13:41:30;;;;;;;;;;;30.80;81.80;;;;;;5053353;28;19935;-81
2022/06/29 13:43:58;;;;;;;;;;;30.90;81.70;;;;;;5053743;28;19936;-83
2022/06/29 13:46:25;;;;;;;;;;;31.10;81.20;;;;;;5053466;28;19929;-82
2022/06/29 13:48:52;;;;;;;;;;;31.10;81.20;;;;;;5060641;28;19925;-81
2022/06/29 13:51:19;;;;;;;;;;;31.10;81.30;;;;;;5057584;28;19925;-82
2022/06/29 13:53:46;;;;;;;;;;;31.00;81.30;;;;;;5060366;28;20210;-80
2022/06/29 13:56:12;;;;;;;;;;;30.80;81.60;;;;;;5082125;28;19954;-80
2022/06/29 13:58:39;;;;;;;;;;;30.90;80.90;;;;;;5081138;28;19928;-82
2022/06/29 14:01:08;;;;;;;;;;;31.00;81.50;;;;;;5058520;28;19959;-81
2022/06/29 14:03:35;;;;;;;;;;;31.10;81.30;;;;;;5059715;28;19928;-81
2022/06/29 14:06:02;;;;;;;;;;;31.00;80.20;;;;;;5057752;28;19928;-81
2022/06/29 14:08:29;;;;;;;;;;;31.60;81.70;;;;;;5076492;28;19931;-81
2022/06/29 14:10:57;;;;;;;;;;;30.80;80.30;;;;;;5056505;28;19928;-81
2022/06/29 14:13:24;;;;;;;;;;;30.50;79.40;;;;;;5059471;28;20041;-81
2022/06/29 14:15:50;;;;;;;;;;;30.30;79.50;;;;;;5056779;28;19930;-81
2022/06/29 14:18:18;;;;;;;;;;;30.40;79.80;;;;;;5056362;28;19924;-81
2022/06/29 14:20:45;;;;;;;;;;;30.40;80.70;;;;;;5075212;28;20304;-81
2022/06/29 14:23:12;;;;;;;;;;;30.50;80.60;;;;;;5073104;28;20530;-81
2022/06/29 14:25:39;;;;;;;;;;;30.60;79.70;;;;;;5075106;28;19931;-79
2022/06/29 14:28:06;;;;;;;;;;;30.70;78.70;;;;;;5072942;28;20023;-81
2022/06/29 14:30:33;;;;;;;;;;;30.60;78.00;;;;;;5072046;28;20023;-81
2022/06/29 14:32:59;;;;;;;;;;;30.40;76.80;;;;;;5071098;28;19924;-80
2022/06/29 14:35:28;;;;;;;;;;;30.50;77.40;;;;;;5069645;28;19927;-80
2022/06/29 14:37:54;;;;;;;;;;;30.40;78.50;;;;;;5090448;28;19958;-80
2022/06/29 14:40:21;;;;;;;;;;;30.50;78.00;;;;;;5058634;28;20011;-81